createdAt,value
2022-11-03T00:01:43.689Z,57.16
2022-11-03T00:04:12.906Z,57.13
2022-11-03T00:06:41.926Z,57.00
2022-11-03T00:09:11.312Z,56.87
2022-11-03T00:11:39.713Z,58.50
2022-11-03T00:14:07.366Z,58.17
2022-11-03T00:16:34.068Z,58.36
2022-11-03T00:19:00.933Z,58.06
2022-11-03T00:21:27.644Z,57.65
2022-11-03T00:23:54.310Z,56.82
2022-11-03T00:26:24.524Z,60.59
2022-11-03T00:28:53.309Z,59.94
2022-11-03T00:31:26.417Z,59.21
2022-11-03T00:33:54.619Z,58.79
2022-11-03T00:36:27.015Z,58.82
2022-11-03T00:38:53.705Z,58.44
2022-11-03T00:41:21.626Z,57.93
2022-11-03T00:43:49.444Z,57.93
2022-11-03T00:46:17.082Z,57.41
2022-11-03T00:48:43.965Z,58.58
2022-11-03T00:51:10.504Z,58.46
2022-11-03T00:53:40.169Z,57.90
2022-11-03T00:56:09.767Z,58.28
2022-11-03T00:58:36.710Z,58.46
2022-11-03T01:01:07.453Z,57.46
2022-11-03T01:03:36.291Z,57.87
2022-11-03T01:06:24.320Z,57.56
2022-11-03T01:08:50.916Z,57.26
2022-11-03T01:11:42.652Z,58.04
2022-11-03T01:14:15.116Z,57.90
2022-11-03T01:16:42.231Z,58.12
2022-11-03T01:19:09.524Z,57.93
2022-11-03T01:21:36.245Z,58.15
2022-11-03T01:24:04.652Z,57.79
2022-11-03T01:26:31.838Z,57.00
2022-11-03T01:29:00.320Z,59.48
2022-11-03T01:31:28.274Z,59.00
2022-11-03T01:33:56.517Z,58.40
2022-11-03T01:36:23.787Z,58.67
2022-11-03T01:38:50.853Z,58.79
2022-11-03T01:41:20.208Z,59.09
2022-11-03T01:44:31.472Z,58.75
2022-11-03T01:47:01.085Z,58.60
2022-11-03T01:49:36.244Z,60.40
2022-11-03T01:52:15.996Z,59.73
2022-11-03T01:54:46.024Z,60.40
2022-11-03T01:57:20.045Z,60.35
2022-11-03T01:59:48.300Z,59.72
2022-11-03T02:02:15.371Z,60.42
2022-11-03T02:04:43.128Z,60.34
2022-11-03T02:07:25.101Z,60.09
2022-11-03T02:09:52.026Z,60.01
2022-11-03T02:12:21.264Z,60.21
2022-11-03T02:15:06.559Z,60.42
2022-11-03T02:17:34.249Z,60.51
2022-11-03T02:20:17.572Z,60.70
2022-11-03T02:23:04.712Z,61.39
2022-11-03T02:25:50.667Z,61.29
2022-11-03T02:28:24.181Z,61.71
2022-11-03T02:31:13.663Z,62.32
2022-11-03T02:33:52.211Z,62.33
2022-11-03T02:36:27.521Z,62.07
2022-11-03T02:39:10.861Z,61.50
2022-11-03T02:41:39.709Z,60.23
2022-11-03T02:44:12.477Z,59.90
2022-11-03T02:46:41.996Z,59.60
2022-11-03T02:49:08.677Z,59.47
2022-11-03T02:51:35.308Z,59.22
2022-11-03T02:54:05.002Z,58.85
2022-11-03T02:56:35.436Z,58.65
2022-11-03T02:59:07.063Z,59.42
2022-11-03T03:01:35.110Z,58.72
2022-11-03T03:04:07.508Z,61.45
2022-11-03T03:06:42.268Z,61.53
2022-11-03T03:09:16.707Z,60.20
2022-11-03T03:11:46.545Z,60.73
2022-11-03T03:14:18.277Z,60.78
2022-11-03T03:17:29.645Z,59.60
2022-11-03T03:20:08.284Z,59.45
2022-11-03T03:22:34.789Z,62.02
2022-11-03T03:25:27.938Z,61.92
2022-11-03T03:28:01.513Z,61.44
2022-11-03T03:30:29.252Z,60.14
2022-11-03T03:32:59.245Z,59.29
2022-11-03T03:35:30.816Z,62.30
2022-11-03T03:38:02.099Z,63.45
2022-11-03T03:40:36.544Z,63.46
2022-11-03T03:43:06.604Z,63.62
2022-11-03T03:45:35.176Z,64.07
2022-11-03T03:48:04.120Z,65.46
2022-11-03T03:50:35.577Z,64.53
2022-11-03T03:53:04.321Z,64.02
2022-11-03T03:55:42.787Z,63.27
2022-11-03T03:58:12.873Z,63.88
2022-11-03T04:00:42.790Z,63.97
2022-11-03T04:03:17.687Z,63.79
2022-11-03T04:05:45.026Z,62.89
2022-11-03T04:08:12.883Z,64.33
2022-11-03T04:10:39.668Z,67.34
2022-11-03T04:13:26.827Z,67.03
2022-11-03T04:16:11.957Z,66.38
2022-11-03T04:18:57.078Z,66.10
2022-11-03T04:21:41.958Z,66.50
2022-11-03T04:24:08.583Z,65.94
2022-11-03T04:26:35.169Z,66.27
2022-11-03T04:29:01.920Z,68.49
2022-11-03T04:31:31.370Z,67.76
2022-11-03T04:33:58.283Z,67.09
2022-11-03T04:36:25.742Z,66.19
2022-11-03T04:38:52.835Z,67.70
2022-11-03T04:41:31.834Z,67.08
2022-11-03T04:43:58.490Z,68.02
2022-11-03T04:46:30.337Z,68.15
2022-11-03T04:49:02.065Z,67.88
2022-11-03T04:51:33.227Z,67.32
2022-11-03T04:54:04.613Z,67.16
2022-11-03T04:56:31.261Z,67.32
2022-11-03T04:58:58.588Z,67.83
2022-11-03T05:01:25.901Z,68.27
2022-11-03T05:03:54.602Z,68.58
2022-11-03T05:06:24.452Z,68.55
2022-11-03T05:09:03.153Z,68.00
2022-11-03T05:11:41.480Z,67.55
2022-11-03T05:14:31.737Z,67.29
2022-11-03T05:17:00.550Z,66.37
2022-11-03T05:19:27.035Z,65.51
2022-11-03T05:21:56.728Z,65.29
2022-11-03T05:24:26.110Z,64.41
2022-11-03T05:26:55.717Z,64.00
2022-11-03T05:29:34.875Z,63.98
2022-11-03T05:32:01.544Z,64.74
2022-11-03T05:34:33.337Z,65.08
2022-11-03T05:37:26.094Z,65.29
2022-11-03T05:39:59.106Z,65.61
2022-11-03T05:42:32.618Z,66.41
2022-11-03T05:45:03.966Z,67.29
2022-11-03T05:47:37.893Z,67.48
2022-11-03T05:50:17.704Z,66.86
2022-11-03T05:52:46.748Z,66.42
2022-11-03T05:55:29.765Z,65.82
2022-11-03T05:58:00.099Z,65.14
2022-11-03T06:00:32.228Z,65.04
2022-11-03T06:02:59.932Z,64.98
2022-11-03T06:05:27.685Z,64.25
2022-11-03T06:07:57.981Z,65.20
2022-11-03T06:10:31.177Z,64.84
2022-11-03T06:13:06.236Z,64.26
2022-11-03T06:15:35.287Z,64.05
2022-11-03T06:18:14.759Z,63.59
2022-11-03T06:20:42.015Z,63.30
2022-11-03T06:23:15.529Z,65.02
2022-11-03T06:25:43.412Z,65.24
2022-11-03T06:28:34.863Z,64.43
2022-11-03T06:31:01.501Z,64.49
2022-11-03T06:33:33.940Z,64.38
2022-11-03T06:36:13.727Z,64.47
2022-11-03T06:38:40.326Z,64.97
2022-11-03T06:41:18.068Z,64.73
2022-11-03T06:43:45.227Z,64.31
2022-11-03T06:46:26.011Z,64.36
2022-11-03T06:48:55.311Z,63.84
2022-11-03T06:51:24.549Z,62.34
2022-11-03T06:53:53.668Z,61.26
2022-11-03T06:56:22.677Z,60.53
2022-11-03T06:58:51.915Z,60.40
2022-11-03T07:01:24.408Z,59.42
2022-11-03T07:03:56.611Z,57.78
2022-11-03T07:06:29.180Z,57.79
2022-11-03T07:08:58.851Z,54.50
2022-11-03T07:11:28.105Z,53.68
2022-11-03T07:14:02.928Z,53.63
2022-11-03T07:16:37.291Z,53.65
2022-11-03T07:19:35.067Z,53.32
2022-11-03T07:22:06.426Z,52.38
2022-11-03T07:24:45.914Z,51.94
2022-11-03T07:27:39.231Z,51.52
2022-11-03T07:30:26.898Z,51.26
2022-11-03T07:32:54.519Z,50.90
2022-11-03T07:35:53.350Z,50.83
2022-11-03T07:38:22.440Z,50.54
2022-11-03T07:40:51.716Z,50.80
2022-11-03T07:43:38.382Z,51.87
2022-11-03T07:46:06.170Z,51.41
2022-11-03T07:48:44.133Z,51.29
2022-11-03T07:51:33.121Z,51.10
2022-11-03T07:54:08.664Z,50.47
2022-11-03T07:56:48.414Z,50.13
2022-11-03T07:59:28.878Z,50.45
2022-11-03T08:01:57.375Z,49.67
2022-11-03T08:04:35.606Z,48.83
2022-11-03T08:07:02.213Z,47.83
2022-11-03T08:09:28.768Z,47.11
2022-11-03T08:11:55.356Z,47.54
2022-11-03T08:14:22.093Z,47.30
2022-11-03T08:16:48.733Z,47.08
2022-11-03T08:19:15.331Z,46.52
2022-11-03T08:21:41.990Z,46.24
2022-11-03T08:24:08.794Z,45.08
2022-11-03T08:26:35.433Z,44.31
2022-11-03T08:29:02.120Z,43.86
2022-11-03T08:31:28.704Z,42.94
2022-11-03T08:33:55.337Z,43.05
2022-11-03T08:36:22.689Z,42.29
2022-11-03T08:38:49.243Z,41.34
2022-11-03T08:41:15.886Z,40.56
2022-11-03T08:43:42.529Z,40.31
2022-11-03T08:46:17.266Z,39.81
2022-11-03T08:48:45.667Z,40.08
2022-11-03T08:51:14.143Z,39.56
2022-11-03T08:53:44.960Z,40.34
2022-11-03T08:56:14.216Z,40.34
2022-11-03T08:58:42.420Z,39.93
2022-11-03T09:01:09.009Z,40.43
2022-11-03T09:03:35.742Z,40.36
2022-11-03T09:06:02.442Z,41.05
2022-11-03T09:11:15.540Z,40.44
2022-11-03T09:13:42.113Z,40.12
2022-11-03T09:16:08.856Z,39.85
2022-11-03T09:18:35.523Z,39.89
2022-11-03T09:21:02.178Z,39.85
2022-11-03T09:23:28.726Z,40.61
2022-11-03T09:25:55.325Z,40.99
2022-11-03T09:28:21.899Z,40.73
2022-11-03T09:30:48.453Z,41.58
2022-11-03T09:33:15.058Z,42.41
2022-11-03T09:35:41.904Z,42.74
2022-11-03T09:38:08.594Z,42.10
2022-11-03T09:40:36.281Z,42.88
2022-11-03T09:43:03.418Z,42.97
2022-11-03T09:45:30.055Z,42.81
2022-11-03T09:47:56.976Z,42.15
2022-11-03T09:50:23.767Z,42.33
2022-11-03T09:52:55.322Z,42.09
2022-11-03T09:55:25.449Z,42.78
2022-11-03T09:57:55.004Z,42.08
2022-11-03T10:00:23.861Z,42.32
2022-11-03T10:02:50.937Z,41.69
2022-11-03T10:05:27.980Z,41.06
2022-11-03T10:07:59.297Z,41.06
2022-11-03T10:10:26.765Z,40.91
2022-11-03T10:12:53.867Z,40.38
2022-11-03T10:15:23.335Z,40.08
2022-11-03T10:17:52.677Z,40.73
2022-11-03T10:20:21.920Z,40.63
2022-11-03T10:22:53.189Z,40.57
2022-11-03T10:25:38.998Z,41.09
2022-11-03T10:28:23.125Z,40.84
2022-11-03T10:33:50.255Z,39.88
2022-11-03T10:36:16.808Z,40.62
2022-11-03T10:38:44.330Z,40.54
2022-11-03T10:41:22.979Z,39.91
2022-11-03T10:44:22.113Z,40.42
2022-11-03T10:47:03.157Z,40.50
2022-11-03T10:49:39.321Z,40.62
2022-11-03T10:52:23.785Z,40.33
2022-11-03T10:54:52.765Z,39.82
2022-11-03T10:57:21.142Z,39.46
2022-11-03T10:59:50.017Z,39.58
2022-11-03T11:02:21.016Z,39.05
2022-11-03T11:04:58.972Z,39.42
2022-11-03T11:09:55.605Z,38.53
2022-11-03T11:12:25.745Z,38.62
2022-11-03T11:14:55.300Z,38.91
2022-11-03T11:17:42.988Z,38.70
2022-11-03T11:20:19.452Z,38.88
2022-11-03T11:22:46.208Z,39.27
2022-11-03T11:25:12.869Z,40.16
2022-11-03T11:27:39.432Z,39.75
2022-11-03T11:30:27.726Z,39.42
2022-11-03T11:33:01.279Z,39.43
2022-11-03T11:35:27.800Z,39.39
2022-11-03T11:37:54.700Z,39.89
2022-11-03T11:40:24.012Z,39.59
2022-11-03T11:43:02.935Z,39.91
2022-11-03T11:46:06.957Z,39.33
2022-11-03T11:48:34.558Z,40.41
2022-11-03T11:51:02.254Z,39.98
2022-11-03T11:53:39.885Z,40.02
2022-11-03T11:56:10.573Z,40.01
2022-11-03T11:58:50.976Z,39.68
2022-11-03T12:01:29.812Z,40.28
2022-11-03T12:03:59.572Z,40.55
2022-11-03T12:06:37.580Z,40.79
2022-11-03T12:09:09.600Z,40.45
2022-11-03T12:11:46.059Z,40.63
2022-11-03T12:14:30.674Z,40.49
2022-11-03T12:16:59.093Z,40.53
2022-11-03T12:19:46.162Z,41.12
2022-11-03T12:22:41.935Z,40.63
2022-11-03T12:25:32.710Z,40.58
2022-11-03T12:27:59.275Z,40.23
2022-11-03T12:30:25.829Z,40.44
2022-11-03T12:32:53.413Z,40.14
2022-11-03T12:35:19.978Z,40.21
2022-11-03T12:37:46.564Z,39.83
2022-11-03T12:40:14.481Z,40.20
2022-11-03T12:42:41.257Z,39.86
2022-11-03T12:45:08.803Z,39.58
2022-11-03T12:47:35.445Z,39.56
2022-11-03T12:50:02.186Z,39.68
2022-11-03T12:52:28.751Z,39.58
2022-11-03T12:54:55.335Z,39.08
2022-11-03T12:57:21.896Z,39.32
2022-11-03T12:59:48.443Z,39.59
2022-11-03T13:02:15.101Z,39.76
2022-11-03T13:04:41.800Z,39.71
2022-11-03T13:07:08.408Z,39.79
2022-11-03T13:09:36.017Z,40.00
2022-11-03T13:12:21.195Z,39.71
2022-11-03T13:14:48.752Z,39.79
2022-11-03T13:17:15.538Z,39.33
2022-11-03T13:19:42.187Z,39.38
2022-11-03T13:22:08.815Z,39.07
2022-11-03T13:24:35.420Z,39.53
2022-11-03T13:27:02.060Z,39.27
2022-11-03T13:29:34.039Z,39.46
2022-11-03T13:32:03.529Z,39.43
2022-11-03T13:34:30.511Z,39.29
2022-11-03T13:36:57.151Z,39.61
2022-11-03T13:39:23.800Z,39.73
2022-11-03T13:41:51.037Z,39.43
2022-11-03T13:44:17.593Z,39.82
2022-11-03T13:46:44.162Z,39.94
2022-11-03T13:51:57.849Z,39.96
2022-11-03T14:00:01.955Z,40.53
2022-11-03T14:05:18.423Z,40.67
2022-11-03T14:07:45.248Z,40.86
2022-11-03T14:10:11.806Z,40.75
2022-11-03T14:12:38.408Z,40.97
2022-11-03T14:15:09.653Z,40.69
2022-11-03T14:17:36.798Z,40.89
2022-11-03T14:20:05.149Z,41.23
2022-11-03T14:22:32.437Z,41.55
2022-11-03T14:24:59.434Z,41.91
2022-11-03T14:27:26.179Z,41.89
2022-11-03T14:29:52.980Z,42.01
2022-11-03T14:32:20.473Z,42.36
2022-11-03T14:34:47.912Z,42.65
2022-11-03T14:37:15.218Z,42.74
2022-11-03T14:39:42.196Z,42.80
2022-11-03T14:42:16.753Z,42.87
2022-11-03T14:44:45.099Z,43.13
2022-11-03T14:47:14.189Z,43.26
2022-11-03T14:49:41.003Z,43.50
2022-11-03T14:52:07.953Z,43.70
2022-11-03T14:54:35.360Z,43.94
2022-11-03T14:57:03.003Z,44.13
2022-11-03T14:59:29.782Z,44.32
2022-11-03T15:01:57.579Z,44.67
2022-11-03T15:04:24.365Z,44.86
2022-11-03T15:06:51.118Z,45.13
2022-11-03T15:09:18.231Z,45.53
2022-11-03T15:11:45.802Z,45.60
2022-11-03T15:14:12.643Z,45.88
2022-11-03T15:16:40.047Z,46.23
2022-11-03T15:19:07.822Z,46.19
2022-11-03T15:21:34.993Z,46.33
2022-11-03T15:26:48.243Z,46.70
2022-11-03T15:29:14.818Z,47.08
2022-11-03T15:31:47.232Z,47.18
2022-11-03T15:34:14.406Z,47.32
2022-11-03T15:36:41.221Z,47.72
2022-11-03T15:39:07.828Z,48.62
2022-11-03T15:41:34.401Z,48.78
2022-11-03T15:44:00.981Z,48.83
2022-11-03T15:46:27.560Z,49.05
2022-11-03T15:48:56.513Z,49.38
2022-11-03T15:51:23.408Z,50.06
2022-11-03T15:53:53.598Z,49.97
2022-11-03T15:56:24.764Z,50.42
2022-11-03T15:58:51.332Z,52.12
2022-11-03T16:01:18.006Z,52.71
2022-11-03T16:03:44.652Z,52.65
2022-11-03T16:06:11.293Z,52.67
2022-11-03T16:08:38.259Z,52.67
2022-11-03T16:11:05.009Z,52.81
2022-11-03T16:13:31.612Z,53.04
2022-11-03T16:15:58.406Z,53.48
2022-11-03T16:18:25.408Z,53.61
2022-11-03T16:20:52.179Z,53.61
2022-11-03T16:23:18.804Z,54.00
2022-11-03T16:25:45.453Z,53.84
2022-11-03T16:28:12.306Z,53.78
2022-11-03T16:30:39.021Z,53.84
2022-11-03T16:33:05.984Z,53.89
2022-11-03T16:35:32.583Z,54.15
2022-11-03T16:37:59.193Z,54.71
2022-11-03T16:40:25.814Z,54.30
2022-11-03T16:42:52.610Z,54.85
2022-11-03T16:45:26.547Z,55.25
2022-11-03T16:47:53.287Z,55.29
2022-11-03T16:50:20.491Z,55.30
2022-11-03T16:52:48.403Z,55.73
2022-11-03T16:55:16.337Z,55.99
2022-11-03T16:57:43.818Z,55.81
2022-11-03T17:00:16.511Z,55.83
2022-11-03T17:02:44.315Z,55.77
2022-11-03T17:05:11.807Z,56.29
2022-11-03T17:07:38.686Z,56.56
2022-11-03T17:10:06.641Z,57.35
2022-11-03T17:12:33.548Z,57.21
2022-11-03T17:15:00.253Z,57.69
2022-11-03T17:17:26.910Z,57.44
2022-11-03T17:19:53.534Z,57.57
2022-11-03T17:22:23.008Z,57.66
2022-11-03T17:24:49.763Z,58.24
2022-11-03T17:27:27.532Z,58.56
2022-11-03T17:30:01.307Z,59.00
2022-11-03T17:32:39.145Z,59.39
2022-11-03T17:35:21.820Z,59.77
2022-11-03T17:37:52.254Z,59.63
2022-11-03T17:40:23.802Z,59.88
2022-11-03T17:42:50.882Z,60.17
2022-11-03T17:45:22.573Z,60.15
2022-11-03T17:47:49.695Z,60.08
2022-11-03T17:50:18.742Z,60.39
2022-11-03T17:52:46.782Z,60.96
2022-11-03T17:55:27.502Z,61.39
2022-11-03T17:57:55.863Z,62.02
2022-11-03T18:00:23.611Z,61.94
2022-11-03T18:02:51.367Z,62.67
2022-11-03T18:05:22.767Z,62.76
2022-11-03T18:07:50.433Z,62.46
2022-11-03T18:10:17.065Z,64.02
2022-11-03T18:13:05.426Z,64.01
2022-11-03T18:15:34.053Z,63.58
2022-11-03T18:18:02.191Z,64.11
2022-11-03T18:20:30.508Z,64.04
2022-11-03T18:23:20.094Z,64.13
2022-11-03T18:25:47.798Z,64.00
2022-11-03T18:28:14.923Z,64.09
2022-11-03T18:30:43.453Z,64.01
2022-11-03T18:33:35.808Z,64.76
2022-11-03T18:36:06.271Z,65.14
2022-11-03T18:38:36.324Z,64.88
2022-11-03T18:41:23.062Z,65.21
2022-11-03T18:43:49.654Z,64.98
2022-11-03T18:46:16.287Z,64.50
2022-11-03T18:48:42.853Z,65.08
2022-11-03T18:51:10.353Z,65.05
2022-11-03T18:53:39.772Z,65.66
2022-11-03T18:56:14.322Z,65.24
2022-11-03T18:58:40.963Z,65.84
2022-11-03T19:01:21.455Z,66.12
2022-11-03T19:03:48.346Z,66.66
2022-11-03T19:06:15.199Z,66.25
2022-11-03T19:08:43.079Z,66.55
2022-11-03T19:11:11.545Z,66.96
2022-11-03T19:13:41.903Z,66.90
2022-11-03T19:16:14.918Z,66.66
2022-11-03T19:18:42.953Z,66.48
2022-11-03T19:21:14.018Z,67.04
2022-11-03T19:23:41.295Z,66.63
2022-11-03T19:26:33.557Z,67.18
2022-11-03T19:29:04.626Z,67.37
2022-11-03T19:31:36.134Z,67.60
2022-11-03T19:34:03.947Z,67.53
2022-11-03T19:36:33.904Z,67.86
2022-11-03T19:39:01.076Z,68.24
2022-11-03T19:41:46.003Z,68.91
2022-11-03T19:44:13.731Z,69.15
2022-11-03T19:46:42.190Z,69.89
2022-11-03T19:49:14.078Z,70.78
2022-11-03T19:51:40.942Z,70.72
2022-11-03T19:54:14.996Z,70.72
2022-11-03T19:56:41.634Z,70.73
2022-11-03T19:59:13.084Z,71.03
2022-11-03T20:01:40.056Z,71.04
2022-11-03T20:04:10.606Z,70.92
2022-11-03T20:06:38.718Z,71.68
2022-11-03T20:09:07.557Z,71.29
2022-11-03T20:11:35.406Z,71.66
2022-11-03T20:14:03.867Z,72.37
2022-11-03T20:19:26.927Z,72.23
2022-11-03T20:22:04.014Z,71.75
2022-11-03T20:24:31.781Z,72.93
2022-11-03T20:27:00.416Z,72.98
2022-11-03T20:29:32.103Z,72.92
2022-11-03T20:32:01.197Z,72.49
2022-11-03T20:34:27.995Z,72.25
2022-11-03T20:36:54.664Z,72.10
2022-11-03T20:39:21.404Z,72.91
2022-11-03T20:41:52.157Z,73.17
2022-11-03T20:44:18.717Z,73.34
2022-11-03T20:46:45.286Z,74.01
2022-11-03T20:49:11.901Z,74.28
2022-11-03T20:51:45.133Z,74.37
2022-11-03T20:54:21.550Z,74.36
2022-11-03T20:56:48.475Z,74.90
2022-11-03T20:59:24.636Z,75.25
2022-11-03T21:01:52.651Z,74.89
2022-11-03T21:04:20.665Z,75.29
2022-11-03T21:06:47.337Z,76.34
2022-11-03T21:09:17.694Z,76.34
2022-11-03T21:11:45.708Z,75.95
2022-11-03T21:14:25.686Z,75.62
2022-11-03T21:17:10.869Z,76.07
2022-11-03T21:20:01.041Z,76.06
2022-11-03T21:22:57.177Z,76.46
2022-11-03T21:25:25.158Z,76.79
2022-11-03T21:27:54.106Z,76.75
2022-11-03T21:30:22.407Z,77.17
2022-11-03T21:32:49.089Z,77.17
2022-11-03T21:35:19.462Z,77.27
2022-11-03T21:37:46.203Z,77.49
2022-11-03T21:40:13.118Z,77.50
2022-11-03T21:42:58.079Z,77.65
2022-11-03T21:45:25.010Z,78.00
2022-11-03T21:48:14.077Z,78.75
2022-11-03T21:50:41.419Z,79.06
2022-11-03T21:53:08.559Z,79.49
2022-11-03T21:55:35.613Z,79.99
2022-11-03T21:58:03.132Z,79.37
2022-11-03T22:00:31.953Z,79.54
2022-11-03T22:02:59.745Z,79.35
2022-11-03T22:05:26.916Z,80.26
2022-11-03T22:07:53.626Z,80.76
2022-11-03T22:10:20.606Z,80.37
2022-11-03T22:12:47.195Z,80.46
2022-11-03T22:15:32.173Z,81.81
2022-11-03T22:18:06.295Z,82.82
2022-11-03T22:20:51.982Z,83.51
2022-11-03T22:23:37.183Z,84.49
2022-11-03T22:26:22.478Z,84.87
2022-11-03T22:29:12.016Z,84.21
2022-11-03T22:31:41.340Z,84.85
2022-11-03T22:34:26.556Z,84.96
2022-11-03T22:36:53.160Z,85.27
2022-11-03T22:39:38.412Z,84.05
2022-11-03T22:42:23.557Z,83.85
2022-11-03T22:45:08.531Z,83.52
2022-11-03T22:47:35.139Z,82.72
2022-11-03T22:50:01.707Z,82.23
2022-11-03T22:52:28.257Z,82.35
2022-11-03T22:54:54.813Z,82.76
2022-11-03T22:57:21.353Z,82.99
2022-11-03T22:59:47.896Z,84.11
2022-11-03T23:02:14.476Z,84.25
2022-11-03T23:04:41.070Z,84.31
2022-11-03T23:07:07.633Z,85.33
2022-11-03T23:09:34.243Z,84.94
2022-11-03T23:12:00.879Z,86.31
2022-11-03T23:14:47.444Z,86.68
2022-11-03T23:17:14.018Z,87.24
2022-11-03T23:19:58.972Z,87.92
2022-11-03T23:22:25.503Z,87.76
2022-11-03T23:25:01.227Z,87.82
2022-11-03T23:27:28.309Z,87.54
2022-11-03T23:29:54.927Z,86.41
2022-11-03T23:32:21.502Z,86.47
2022-11-03T23:34:48.151Z,85.99
2022-11-03T23:37:14.800Z,87.07
2022-11-03T23:39:41.402Z,87.67
2022-11-03T23:42:07.993Z,87.22
2022-11-03T23:44:53.120Z,87.20
2022-11-03T23:47:38.294Z,86.96
2022-11-03T23:50:05.316Z,86.97
2022-11-03T23:52:31.882Z,87.39
2022-11-03T23:54:58.471Z,88.21
2022-11-03T23:57:43.410Z,87.71
